Time;durP1;ratioP1;P1;durP2;ratioP2;P2;SDS_P1;SDS_P2;PMS_P1;PMS_P2;Temp;Humidity;BMP_temperature;BMP_pressure;BME280_temperature;BME280_humidity;BME280_pressure;Samples;Min_cycle;Max_cycle;Signal;HPM_P1;HPM_P2
2024/04/15 00:00:05;;;;;;;5.90;1.77;;;12.30;95.70;;;;;;6532551;22;20476;-55
2024/04/15 00:02:33;;;;;;;3.37;1.70;;;12.30;95.80;;;;;;6534147;22;20503;-59
2024/04/15 00:05:01;;;;;;;3.47;1.63;;;12.30;95.10;;;;;;6534216;21;20469;-58
2024/04/15 00:07:32;;;;;;;3.30;1.20;;;12.30;94.60;;;;;;6536250;22;20506;-56
2024/04/15 00:09:58;;;;;;;3.80;1.50;;;12.30;94.50;;;;;;6538142;22;20504;-57
2024/04/15 00:12:26;;;;;;;8.30;1.97;;;12.30;94.10;;;;;;6539708;22;20492;-59
2024/04/15 00:14:58;;;;;;;5.03;1.63;;;12.30;93.60;;;;;;6538904;21;20520;-58
2024/04/15 00:17:27;;;;;;;4.80;1.53;;;12.30;93.30;;;;;;6538779;22;20460;-58
2024/04/15 00:19:53;;;;;;;10.43;1.43;;;12.30;93.30;;;;;;6536281;22;20460;-58
2024/04/15 00:22:21;;;;;;;5.93;1.20;;;12.30;93.70;;;;;;6535197;22;20509;-57
2024/04/15 00:24:47;;;;;;;4.93;1.53;;;12.30;93.30;;;;;;6534010;21;20508;-58
2024/04/15 00:27:17;;;;;;;3.27;1.30;;;12.20;93.50;;;;;;6535040;22;20460;-57
2024/04/15 00:29:43;;;;;;;1.90;1.13;;;12.20;93.70;;;;;;6534213;22;20452;-57
2024/04/15 00:32:14;;;;;;;8.10;1.27;;;12.20;93.70;;;;;;6535094;22;20456;-57
2024/04/15 00:34:40;;;;;;;8.23;1.77;;;12.20;93.90;;;;;;6534747;21;20468;-56
2024/04/15 00:37:12;;;;;;;2.47;1.27;;;12.10;94.10;;;;;;6538288;22;20512;-57
2024/04/15 00:39:38;;;;;;;2.10;1.13;;;12.10;94.90;;;;;;6534597;22;20460;-58
2024/04/15 00:42:07;;;;;;;2.83;1.23;;;12.00;94.80;;;;;;6535222;22;20501;-57
2024/04/15 00:44:33;;;;;;;5.40;1.73;;;12.00;94.70;;;;;;6534665;21;20516;-56
2024/04/15 00:47:04;;;;;;;8.77;1.30;;;12.00;94.70;;;;;;6533827;22;20527;-58
2024/04/15 00:49:34;;;;;;;3.50;1.27;;;12.00;94.90;;;;;;6534193;22;20448;-56
2024/04/15 00:52:02;;;;;;;1.97;1.00;;;11.90;94.80;;;;;;6533432;22;20464;-58
2024/04/15 00:54:30;;;;;;;9.03;1.70;;;11.90;95.80;;;;;;6533352;21;20533;-57
2024/04/15 00:56:59;;;;;;;7.87;1.10;;;11.90;96.00;;;;;;6533920;22;20985;-55
2024/04/15 00:59:27;;;;;;;6.37;1.80;;;11.80;96.00;;;;;;6533666;22;21013;-57
2024/04/15 01:01:56;;;;;;;6.37;1.40;;;11.80;95.90;;;;;;6532413;22;20508;-56
2024/04/15 01:04:22;;;;;;;3.03;1.23;;;11.80;96.00;;;;;;6533527;21;20759;-57
2024/04/15 01:06:54;;;;;;;4.40;2.43;;;11.80;96.20;;;;;;6533937;22;20568;-57
2024/04/15 01:09:20;;;;;;;3.27;1.47;;;11.70;96.40;;;;;;6533246;22;20461;-58
2024/04/15 01:11:49;;;;;;;5.20;1.17;;;11.70;96.90;;;;;;6533392;22;20517;-56
2024/04/15 01:14:15;;;;;;;6.10;1.87;;;11.70;96.60;;;;;;6532116;21;20473;-54
2024/04/15 01:16:44;;;;;;;3.20;1.47;;;11.70;96.60;;;;;;6533281;22;20457;-59
2024/04/15 01:19:09;;;;;;;10.23;1.97;;;11.70;96.80;;;;;;6532853;22;20496;-58
2024/04/15 01:21:38;;;;;;;7.60;1.40;;;11.70;96.70;;;;;;6532399;22;20461;-58
2024/04/15 01:24:07;;;;;;;5.13;1.30;;;11.60;97.00;;;;;;6532515;21;20226;-56
2024/04/15 01:26:36;;;;;;;5.10;1.97;;;11.60;97.00;;;;;;6534138;22;20460;-58
2024/04/15 01:29:02;;;;;;;3.73;1.33;;;11.60;97.30;;;;;;6532785;22;20453;-57
2024/04/15 01:31:30;;;;;;;3.30;1.50;;;11.60;97.40;;;;;;6532317;22;20508;-58
2024/04/15 01:33:56;;;;;;;2.43;1.63;;;11.50;97.70;;;;;;6532540;21;20505;-59
2024/04/15 01:36:25;;;;;;;10.03;2.20;;;11.50;97.90;;;;;;6531764;22;20449;-57
2024/04/15 01:38:50;;;;;;;7.40;1.80;;;11.50;98.00;;;;;;6531362;22;20452;-55
2024/04/15 01:41:22;;;;;;;8.60;1.50;;;11.50;98.30;;;;;;6532096;22;20853;-57
2024/04/15 01:43:47;;;;;;;4.30;1.33;;;11.50;98.50;;;;;;6533253;21;20233;-57
2024/04/15 01:46:16;;;;;;;5.27;1.60;;;11.50;98.60;;;;;;6536307;22;20501;-57
2024/04/15 01:48:42;;;;;;;6.50;1.67;;;11.50;98.60;;;;;;6536901;22;20863;-58
2024/04/15 01:51:10;;;;;;;5.70;1.30;;;11.50;98.80;;;;;;6533243;22;20460;-59
2024/04/15 01:53:36;;;;;;;6.23;1.27;;;11.50;99.10;;;;;;6533434;21;21001;-56
2024/04/15 01:56:05;;;;;;;8.13;2.20;;;11.50;99.20;;;;;;6533213;22;20461;-58
2024/04/15 01:58:34;;;;;;;2.53;1.53;;;11.50;99.30;;;;;;6533027;22;20508;-58
2024/04/15 02:01:06;;;;;;;4.00;1.50;;;11.50;98.50;;;;;;6532874;22;20787;-56
2024/04/15 02:03:32;;;;;;;3.50;1.13;;;11.50;98.60;;;;;;6532539;21;20453;-55
2024/04/15 02:06:01;;;;;;;10.10;1.07;;;11.50;98.50;;;;;;6532600;21;20464;-57
2024/04/15 02:08:27;;;;;;;4.73;1.27;;;11.50;98.30;;;;;;6532710;22;20457;-58
2024/04/15 02:10:55;;;;;;;5.73;1.90;;;11.50;98.30;;;;;;6531218;22;20497;-57
2024/04/15 02:13:23;;;;;;;4.07;1.20;;;11.50;98.10;;;;;;6530657;21;20452;-55
2024/04/15 02:15:54;;;;;;;8.53;1.80;;;11.50;97.70;;;;;;6531362;22;20461;-57
2024/04/15 02:18:20;;;;;;;6.50;1.77;;;11.50;97.60;;;;;;6531620;22;20448;-56
2024/04/15 02:20:49;;;;;;;4.23;1.60;;;11.50;97.70;;;;;;6532370;22;20560;-54
2024/04/15 02:23:15;;;;;;;4.90;2.13;;;11.50;97.80;;;;;;6532062;22;20489;-56
2024/04/15 02:25:44;;;;;;;11.93;2.00;;;11.50;98.10;;;;;;6531289;21;20549;-56
2024/04/15 02:28:10;;;;;;;4.00;1.70;;;11.50;97.70;;;;;;6531122;22;20452;-57
2024/04/15 02:30:39;;;;;;;3.80;1.60;;;11.50;98.00;;;;;;6530575;22;20819;-57
2024/04/15 02:33:08;;;;;;;4.80;1.40;;;11.50;97.80;;;;;;6531952;22;20273;-56
2024/04/15 02:35:36;;;;;;;4.03;1.57;;;11.50;98.00;;;;;;6530876;21;20788;-58
2024/04/15 02:38:03;;;;;;;2.97;1.83;;;11.50;98.20;;;;;;6532308;22;20523;-58
2024/04/15 02:40:31;;;;;;;1.67;1.47;;;11.60;98.20;;;;;;6532883;22;20516;-57
2024/04/15 02:42:58;;;;;;;5.40;1.10;;;11.60;97.90;;;;;;6532037;22;20445;-56
2024/04/15 02:45:30;;;;;;;5.43;1.50;;;11.50;97.70;;;;;;6531602;21;20469;-56
2024/04/15 02:47:56;;;;;;;6.10;1.60;;;11.50;97.80;;;;;;6531523;22;20505;-59
2024/04/15 02:50:27;;;;;;;6.07;2.80;;;11.50;97.80;;;;;;6531567;22;20516;-54
2024/04/15 02:52:53;;;;;;;5.23;1.93;;;11.40;97.00;;;;;;6532099;22;20516;-58
2024/04/15 02:55:21;;;;;;;2.70;1.20;;;11.40;96.90;;;;;;6528974;21;20616;-58
2024/04/15 02:57:48;;;;;;;1.90;1.27;;;11.40;96.70;;;;;;6529662;22;20810;-57
2024/04/15 03:00:17;;;;;;;7.63;2.73;;;11.40;96.60;;;;;;6527680;22;20448;-59
2024/04/15 03:02:43;;;;;;;3.90;1.43;;;11.40;96.60;;;;;;6529182;22;20613;-58
2024/04/15 03:05:12;;;;;;;7.70;2.60;;;11.30;96.50;;;;;;6531460;21;20456;-56
2024/04/15 03:07:41;;;;;;;2.90;1.20;;;11.40;96.80;;;;;;6531711;22;20776;-55
2024/04/15 03:10:10;;;;;;;1.40;1.00;;;11.40;96.90;;;;;;6531347;22;20845;-58
2024/04/15 03:12:36;;;;;;;9.93;1.50;;;11.40;96.70;;;;;;6530703;22;20505;-58
2024/04/15 03:15:06;;;;;;;2.90;1.00;;;11.30;96.60;;;;;;6529525;21;20452;-57
2024/04/15 03:17:32;;;;;;;2.33;1.83;;;11.30;96.60;;;;;;6531981;22;20449;-52
2024/04/15 03:20:00;;;;;;;4.57;1.20;;;11.30;97.30;;;;;;6533140;22;20513;-54
2024/04/15 03:22:26;;;;;;;4.70;1.30;;;11.20;96.60;;;;;;6529777;22;20492;-55
2024/04/15 03:24:57;;;;;;;3.83;1.13;;;11.20;96.50;;;;;;6529098;21;20469;-55
2024/04/15 03:27:23;;;;;;;6.70;1.80;;;11.30;96.60;;;;;;6530880;22;20264;-57
2024/04/15 03:29:52;;;;;;;13.70;1.63;;;11.20;96.80;;;;;;6529337;22;20512;-57
2024/04/15 03:32:18;;;;;;;2.80;1.50;;;11.20;96.80;;;;;;6529356;22;20492;-59
2024/04/15 03:34:46;;;;;;;8.13;1.60;;;11.20;96.90;;;;;;6528267;21;20457;-57
2024/04/15 03:37:15;;;;;;;9.40;1.90;;;11.30;97.10;;;;;;6528995;22;20441;-58
2024/04/15 03:39:44;;;;;;;2.87;1.60;;;11.20;97.00;;;;;;6529224;22;20460;-59
2024/04/15 03:42:15;;;;;;;3.10;1.53;;;11.20;96.70;;;;;;6530969;22;20452;-58
2024/04/15 03:44:41;;;;;;;2.00;1.00;;;11.20;96.50;;;;;;6530875;21;20504;-59
2024/04/15 03:47:09;;;;;;;3.53;1.20;;;11.20;96.70;;;;;;6530875;22;20562;-57
2024/04/15 03:49:35;;;;;;;2.20;0.93;;;11.20;97.10;;;;;;6529873;22;20576;-59
2024/04/15 03:52:04;;;;;;;3.47;1.20;;;11.20;96.70;;;;;;6529627;22;20523;-57
2024/04/15 03:54:33;;;;;;;4.73;1.20;;;11.10;96.10;;;;;;6529563;21;20468;-54
2024/04/15 03:57:01;;;;;;;4.13;1.20;;;11.20;96.40;;;;;;6530755;22;20560;-56
2024/04/15 03:59:35;;;;;;;3.23;1.60;;;11.20;96.40;;;;;;6530223;22;20499;-57
2024/04/15 04:02:04;;;;;;;8.93;1.77;;;11.20;97.10;;;;;;6530350;22;20512;-54
2024/04/15 04:04:31;;;;;;;4.03;3.23;;;11.30;97.60;;;;;;6529192;21;20509;-55
2024/04/15 04:06:59;;;;;;;10.70;1.60;;;11.30;96.90;;;;;;6531103;22;20564;-58
2024/04/15 04:09:25;;;;;;;4.60;1.33;;;11.30;97.10;;;;;;6529604;22;20505;-56
2024/04/15 04:11:54;;;;;;;7.80;1.50;;;11.30;97.50;;;;;;6530839;22;20464;-53
2024/04/15 04:14:20;;;;;;;6.03;1.67;;;11.30;97.40;;;;;;6530337;21;20464;-58
2024/04/15 04:16:51;;;;;;;6.07;1.17;;;11.30;97.40;;;;;;6531003;22;20564;-52
2024/04/15 04:19:21;;;;;;;4.37;1.47;;;11.30;97.30;;;;;;6533061;22;20509;-57
2024/04/15 04:21:49;;;;;;;5.63;1.33;;;11.30;97.40;;;;;;6531838;22;20458;-58
2024/04/15 04:24:16;;;;;;;4.37;1.30;;;11.30;97.40;;;;;;6531494;21;20493;-55
2024/04/15 04:26:44;;;;;;;7.40;1.80;;;11.30;98.10;;;;;;6532646;22;20562;-57
2024/04/15 04:29:10;;;;;;;6.17;1.30;;;11.30;97.70;;;;;;6531031;22;20460;-56
2024/04/15 04:31:40;;;;;;;3.60;1.20;;;11.20;98.30;;;;;;6530397;22;20456;-57
2024/04/15 04:34:08;;;;;;;4.60;1.60;;;11.30;99.40;;;;;;6531751;21;20553;-55
2024/04/15 04:36:37;;;;;;;9.87;1.77;;;11.20;99.60;;;;;;6538533;22;20508;-52
2024/04/15 04:39:03;;;;;;;4.00;1.73;;;11.20;99.90;;;;;;6539197;22;20460;-53
2024/04/15 04:41:31;;;;;;;4.33;1.50;;;11.20;99.90;;;;;;6539404;22;20552;-56
2024/04/15 04:43:57;;;;;;;5.10;1.73;;;11.30;99.90;;;;;;6539904;21;20464;-57
2024/04/15 04:46:26;;;;;;;3.73;1.20;;;11.20;99.90;;;;;;6533725;22;20509;-59
2024/04/15 04:48:52;;;;;;;4.77;1.50;;;11.20;99.90;;;;;;6532976;22;20440;-58
2024/04/15 04:51:25;;;;;;;8.80;2.10;;;11.20;99.90;;;;;;6531016;22;20457;-67
2024/04/15 04:53:51;;;;;;;3.33;1.43;;;11.00;99.90;;;;;;6529597;21;20472;-68
2024/04/15 04:56:20;;;;;;;6.23;2.13;;;10.90;99.90;;;;;;6529332;22;20505;-67
2024/04/15 04:58:48;;;;;;;6.23;3.40;;;10.80;99.90;;;;;;6530011;22;20506;-68
2024/04/15 05:01:18;;;;;;;5.53;1.90;;;10.80;99.90;;;;;;6529535;22;20460;-67
2024/04/15 05:03:45;;;;;;;7.60;2.30;;;10.70;99.90;;;;;;6529561;21;20815;-67
2024/04/15 05:06:15;;;;;;;3.40;1.40;;;10.70;99.90;;;;;;6528462;22;20461;-66
2024/04/15 05:08:44;;;;;;;5.70;1.37;;;10.70;99.90;;;;;;6529212;22;20453;-67
2024/04/15 05:11:13;;;;;;;3.80;1.70;;;10.70;99.90;;;;;;6529325;22;20607;-67
2024/04/15 05:13:42;;;;;;;6.53;1.87;;;10.70;99.90;;;;;;6528812;21;20521;-66
2024/04/15 05:16:12;;;;;;;5.60;2.27;;;10.70;99.90;;;;;;6528911;22;20452;-66
2024/04/15 05:18:39;;;;;;;12.63;1.37;;;10.70;99.90;;;;;;6528706;22;20452;-67
2024/04/15 05:21:19;;;;;;;9.87;2.50;;;10.70;99.90;;;;;;6529025;22;20456;-67
2024/04/15 05:23:47;;;;;;;6.10;2.03;;;10.70;99.90;;;;;;6528965;21;20464;-67
2024/04/15 05:26:16;;;;;;;6.00;1.80;;;10.70;99.90;;;;;;6529761;22;20453;-66
2024/04/15 05:28:42;;;;;;;8.77;2.07;;;10.80;99.90;;;;;;6529926;22;20457;-67
2024/04/15 05:31:11;;;;;;;5.67;1.60;;;10.90;99.90;;;;;;6530308;22;20520;-66
2024/04/15 05:33:37;;;;;;;5.50;1.40;;;11.10;99.90;;;;;;6529627;21;20477;-66
2024/04/15 05:36:06;;;;;;;6.23;2.03;;;11.10;99.90;;;;;;6529056;22;20452;-67
2024/04/15 05:38:32;;;;;;;5.33;1.80;;;11.20;99.90;;;;;;6527747;22;20441;-67
2024/04/15 05:41:03;;;;;;;5.03;1.93;;;11.30;99.90;;;;;;6528466;22;20501;-66
2024/04/15 05:43:29;;;;;;;11.23;2.30;;;11.30;99.90;;;;;;6528479;21;20453;-68
2024/04/15 05:45:58;;;;;;;9.83;2.40;;;11.40;99.90;;;;;;6527926;22;20565;-67
2024/04/15 05:48:24;;;;;;;11.80;1.87;;;11.40;99.90;;;;;;6529130;22;20485;-66
2024/04/15 05:50:52;;;;;;;11.07;1.93;;;11.50;99.90;;;;;;6529158;22;20457;-67
2024/04/15 05:53:18;;;;;;;5.60;1.80;;;11.50;99.90;;;;;;6528588;21;20460;-67
2024/04/15 05:55:47;;;;;;;5.50;1.60;;;11.60;99.90;;;;;;6528587;22;20492;-67
2024/04/15 05:58:15;;;;;;;3.40;1.63;;;11.60;99.80;;;;;;6529126;22;20221;-67
2024/04/15 06:00:44;;;;;;;4.17;2.00;;;11.60;99.70;;;;;;6529491;22;20777;-66
2024/04/15 06:03:10;;;;;;;2.90;1.77;;;11.60;99.50;;;;;;6528735;22;20453;-66
2024/04/15 06:05:40;;;;;;;5.63;1.57;;;11.60;99.90;;;;;;6527429;21;20578;-68
2024/04/15 06:08:06;;;;;;;4.33;1.40;;;11.50;99.20;;;;;;6528029;22;20509;-66
2024/04/15 06:10:35;;;;;;;5.30;1.60;;;11.50;99.10;;;;;;6526401;22;20457;-67
2024/04/15 06:13:01;;;;;;;11.77;1.60;;;11.40;99.10;;;;;;6525696;22;20509;-66
2024/04/15 06:15:36;;;;;;;3.50;1.40;;;11.40;99.40;;;;;;6525577;21;20468;-64
2024/04/15 06:18:04;;;;;;;12.10;1.57;;;11.50;99.60;;;;;;6526740;22;20452;-69
2024/04/15 06:20:32;;;;;;;5.07;2.60;;;11.50;99.30;;;;;;6527262;22;20770;-66
2024/04/15 06:23:01;;;;;;;5.40;1.47;;;11.50;99.40;;;;;;6531007;22;20495;-66
2024/04/15 06:25:43;;;;;;;3.27;1.07;;;11.60;99.60;;;;;;6528612;21;21163;-66
2024/04/15 06:28:24;;;;;;;6.47;1.63;;;11.60;99.20;;;;;;6410337;22;20456;-67
2024/04/15 06:31:36;;;;;;;8.40;1.77;;;11.70;99.00;;;;;;6470927;22;20460;-66
2024/04/15 06:39:15;;;;;;;2.97;0.90;;;11.90;98.60;;;;;;6473976;22;20590;-66
2024/04/15 06:41:41;;;;;;;5.27;1.60;;;12.00;98.40;;;;;;6477079;22;20814;-66
2024/04/15 06:44:10;;;;;;;7.70;1.50;;;12.10;98.30;;;;;;6475079;22;20525;-68
2024/04/15 06:46:39;;;;;;;6.30;1.43;;;12.20;98.30;;;;;;6476244;22;20457;-65
2024/04/15 06:49:07;;;;;;;5.57;2.03;;;12.20;98.00;;;;;;6476836;22;20461;-66
2024/04/15 06:51:36;;;;;;;5.87;2.00;;;12.20;98.20;;;;;;6476671;22;20450;-66
2024/04/15 06:54:04;;;;;;;5.03;1.10;;;12.30;98.10;;;;;;6476255;22;20526;-67
2024/04/15 06:56:32;;;;;;;11.47;2.27;;;12.20;97.60;;;;;;6475126;22;20494;-66
2024/04/15 06:59:00;;;;;;;3.63;1.67;;;12.20;97.80;;;;;;6476540;22;20501;-66
2024/04/15 07:01:56;;;;;;;4.03;1.30;;;12.20;98.20;;;;;;6468508;22;20462;-66
2024/04/15 07:07:54;;;;;;;10.27;1.80;;;12.30;98.20;;;;;;6473584;22;20497;-67
2024/04/15 07:10:40;;;;;;;8.53;2.27;;;12.20;98.60;;;;;;6476553;22;20474;-65
2024/04/15 07:15:48;;;;;;;3.63;1.40;;;12.40;98.90;;;;;;6514047;21;20496;-65
2024/04/15 07:18:14;;;;;;;6.63;1.63;;;12.50;99.60;;;;;;6527475;22;20456;-68
2024/04/15 07:20:47;;;;;;;7.20;2.20;;;12.70;99.40;;;;;;6527199;22;20460;-65
2024/04/15 07:23:13;;;;;;;2.37;1.47;;;12.90;98.90;;;;;;6527874;22;20453;-67
2024/04/15 07:25:42;;;;;;;2.93;1.80;;;13.10;98.40;;;;;;6578718;21;20635;-65
2024/04/15 07:28:08;;;;;;;4.90;1.60;;;13.20;98.40;;;;;;6579235;21;20447;-66
2024/04/15 07:30:37;;;;;;;3.73;1.20;;;13.20;98.70;;;;;;6580068;21;20455;-66
2024/04/15 07:33:04;;;;;;;7.30;1.97;;;13.30;99.10;;;;;;6578758;21;20505;-63
2024/04/15 07:35:33;;;;;;;7.67;1.83;;;13.50;99.20;;;;;;6579299;21;20474;-67
2024/04/15 07:38:02;;;;;;;2.03;1.53;;;13.70;99.00;;;;;;6579990;21;20435;-64
2024/04/15 07:40:31;;;;;;;5.67;2.27;;;13.80;98.50;;;;;;6580201;21;20507;-66
2024/04/15 07:42:57;;;;;;;7.53;3.57;;;13.90;98.60;;;;;;6580935;21;20448;-65
2024/04/15 07:45:25;;;;;;;6.23;1.80;;;14.00;99.70;;;;;;6580037;21;20803;-65
2024/04/15 07:47:51;;;;;;;9.70;3.80;;;14.00;99.70;;;;;;6580982;21;20749;-66
2024/04/15 07:50:20;;;;;;;5.03;1.83;;;14.10;99.20;;;;;;6580267;21;20439;-66
2024/04/15 07:52:46;;;;;;;4.93;2.10;;;14.20;99.40;;;;;;6578582;21;20496;-65
2024/04/15 07:57:53;;;;;;;2.00;1.50;;;14.30;99.50;;;;;;6574432;21;20523;-65
2024/04/15 08:00:19;;;;;;;6.60;2.43;;;14.40;99.80;;;;;;6580128;21;20566;-64
2024/04/15 08:02:48;;;;;;;4.23;1.73;;;14.70;99.90;;;;;;6579828;21;20533;-65
2024/04/15 08:05:14;;;;;;;4.40;1.73;;;15.30;99.60;;;;;;6537315;21;20471;-64
2024/04/15 08:07:43;;;;;;;6.10;2.53;;;15.90;98.40;;;;;;6526970;22;20453;-64
2024/04/15 08:10:09;;;;;;;7.80;2.13;;;15.90;98.60;;;;;;6527311;22;20460;-66
2024/04/15 08:12:38;;;;;;;6.63;2.03;;;15.90;98.70;;;;;;6525170;22;20457;-68
2024/04/15 08:15:07;;;;;;;2.77;2.00;;;16.20;98.30;;;;;;6524085;21;20476;-67
2024/04/15 08:17:35;;;;;;;2.47;1.60;;;16.40;98.30;;;;;;6525822;22;20596;-67
2024/04/15 08:20:04;;;;;;;3.93;2.30;;;16.30;97.90;;;;;;6528134;22;20501;-67
2024/04/15 08:22:33;;;;;;;6.20;2.57;;;15.90;98.70;;;;;;6526202;22;20503;-66
2024/04/15 08:24:58;;;;;;;5.23;2.03;;;15.70;99.40;;;;;;6527663;21;20480;-68
2024/04/15 08:27:27;;;;;;;7.93;2.83;;;15.50;99.60;;;;;;6529668;22;20588;-66
2024/04/15 08:29:53;;;;;;;6.77;2.77;;;15.20;99.90;;;;;;6533156;22;20229;-64
2024/04/15 08:32:25;;;;;;;6.67;3.40;;;15.00;99.90;;;;;;6530992;22;20516;-63
2024/04/15 08:34:51;;;;;;;4.40;2.07;;;14.80;99.90;;;;;;6530364;21;20541;-66
2024/04/15 08:37:20;;;;;;;6.33;2.60;;;14.80;99.90;;;;;;6527582;22;20998;-66
2024/04/15 08:39:46;;;;;;;4.50;2.47;;;14.90;99.90;;;;;;6527585;22;20461;-67
2024/04/15 08:42:24;;;;;;;4.97;2.07;;;14.90;99.90;;;;;;6532020;22;20465;-65
2024/04/15 08:44:51;;;;;;;8.20;1.93;;;14.90;99.90;;;;;;6535377;21;20476;-66
2024/04/15 08:47:31;;;;;;;3.07;1.80;;;14.90;99.90;;;;;;6537135;22;20457;-67
2024/04/15 08:49:57;;;;;;;5.60;2.40;;;15.00;99.90;;;;;;6531419;22;20494;-66
2024/04/15 08:52:26;;;;;;;3.00;1.97;;;15.10;99.90;;;;;;6529180;22;20766;-65
2024/04/15 08:54:54;;;;;;;5.90;2.03;;;15.20;99.90;;;;;;6531131;21;20489;-65
2024/04/15 08:57:24;;;;;;;6.27;2.13;;;15.30;99.90;;;;;;6532582;21;20516;-67
2024/04/15 08:59:51;;;;;;;4.13;2.00;;;15.60;99.90;;;;;;6530707;22;20452;-67
2024/04/15 09:02:20;;;;;;;5.23;2.40;;;15.60;99.90;;;;;;6532134;22;20448;-66
2024/04/15 09:04:50;;;;;;;9.70;2.73;;;15.60;99.90;;;;;;6530424;21;20476;-66
2024/04/15 09:07:19;;;;;;;4.13;2.87;;;15.60;99.90;;;;;;6530538;22;20452;-67
2024/04/15 09:09:45;;;;;;;2.03;1.70;;;16.10;99.90;;;;;;6531223;22;20479;-65
2024/04/15 09:12:14;;;;;;;2.57;1.90;;;16.20;99.50;;;;;;6531009;22;20504;-67
2024/04/15 09:14:40;;;;;;;3.60;1.60;;;16.20;99.40;;;;;;6530759;21;20260;-66
2024/04/15 09:17:11;;;;;;;5.80;2.07;;;16.50;99.80;;;;;;6529587;22;20460;-68
2024/04/15 09:19:40;;;;;;;6.37;2.00;;;17.10;97.60;;;;;;6528523;22;20448;-64
2024/04/15 09:22:12;;;;;;;3.50;1.70;;;17.20;97.20;;;;;;6528151;22;20508;-64
2024/04/15 09:24:38;;;;;;;6.00;1.77;;;17.40;97.60;;;;;;6530147;21;20941;-66
2024/04/15 09:27:07;;;;;;;3.40;2.00;;;17.70;95.50;;;;;;6529023;22;20457;-64
2024/04/15 09:29:33;;;;;;;3.80;1.70;;;17.30;95.50;;;;;;6528749;22;20461;-66
2024/04/15 09:32:02;;;;;;;4.63;2.07;;;17.40;96.40;;;;;;6528969;22;20834;-64
2024/04/15 09:34:29;;;;;;;7.23;2.00;;;18.20;95.20;;;;;;6529607;21;20465;-66
2024/04/15 09:36:59;;;;;;;4.43;1.90;;;18.20;94.20;;;;;;6528061;22;20500;-64
2024/04/15 09:39:28;;;;;;;2.60;1.90;;;18.40;93.60;;;;;;6528104;22;20452;-67
2024/04/15 09:41:58;;;;;;;3.97;1.87;;;18.50;92.40;;;;;;6528985;22;20968;-66
2024/04/15 09:44:25;;;;;;;3.87;1.80;;;18.50;93.30;;;;;;6528438;21;20557;-66
2024/04/15 09:46:54;;;;;;;6.40;2.10;;;19.30;91.80;;;;;;6528130;22;20889;-67
2024/04/15 09:49:24;;;;;;;4.93;2.60;;;19.90;89.40;;;;;;6529684;22;20565;-67
2024/04/15 09:51:54;;;;;;;2.53;1.90;;;19.90;86.70;;;;;;6531321;22;20456;-66
2024/04/15 09:54:30;;;;;;;4.33;1.80;;;20.30;86.20;;;;;;6530133;21;20477;-65
2024/04/15 09:57:07;;;;;;;3.50;1.70;;;20.20;85.70;;;;;;6573443;21;20518;-65
2024/04/15 09:59:38;;;;;;;2.00;1.47;;;19.60;84.50;;;;;;6581730;21;20525;-66
2024/04/15 10:02:12;;;;;;;3.13;2.23;;;18.90;85.70;;;;;;6582657;21;20458;-65
2024/04/15 10:04:40;;;;;;;3.63;1.93;;;18.30;86.90;;;;;;6581242;21;20502;-66
2024/04/15 10:07:11;;;;;;;3.43;1.77;;;17.80;89.00;;;;;;6583255;21;20490;-65
2024/04/15 10:09:38;;;;;;;8.40;2.00;;;17.30;90.40;;;;;;6582186;21;20543;-67
2024/04/15 10:12:11;;;;;;;2.10;1.47;;;16.90;91.40;;;;;;6582031;21;20928;-66
2024/04/15 10:14:37;;;;;;;17.00;2.50;;;16.60;92.30;;;;;;6582879;21;20534;-67
2024/04/15 10:17:07;;;;;;;2.90;1.80;;;16.40;92.90;;;;;;6581628;21;20874;-67
2024/04/15 10:19:34;;;;;;;3.73;1.90;;;16.20;93.30;;;;;;6583626;21;20773;-67
2024/04/15 10:22:03;;;;;;;6.93;1.90;;;16.20;95.10;;;;;;6581907;21;20843;-65
2024/04/15 10:24:31;;;;;;;5.70;2.00;;;16.30;95.50;;;;;;6580393;21;20505;-67
2024/04/15 10:27:00;;;;;;;6.13;1.60;;;16.90;97.50;;;;;;6582292;21;20506;-67
2024/04/15 10:29:32;;;;;;;4.10;2.20;;;17.50;97.40;;;;;;6580328;21;20459;-67
2024/04/15 10:32:01;;;;;;;3.37;1.93;;;17.40;98.70;;;;;;6580142;21;20459;-68
2024/04/15 10:34:27;;;;;;;2.67;1.30;;;17.40;98.70;;;;;;6580148;21;20598;-67
2024/04/15 10:36:58;;;;;;;3.23;1.60;;;17.10;93.20;;;;;;6581005;21;20455;-64
2024/04/15 10:39:24;;;;;;;4.10;1.97;;;16.90;99.60;;;;;;6580362;21;20475;-67
2024/04/15 10:41:53;;;;;;;6.07;2.10;;;16.90;95.10;;;;;;6580630;21;20463;-66
2024/04/15 10:44:20;;;;;;;4.97;2.17;;;16.30;95.30;;;;;;6580138;21;20471;-66
2024/04/15 10:46:51;;;;;;;3.00;1.43;;;15.80;96.00;;;;;;6580787;21;20760;-66
2024/04/15 10:49:19;;;;;;;3.03;1.73;;;15.50;96.80;;;;;;6581611;21;20470;-66
2024/04/15 10:51:50;;;;;;;2.40;1.43;;;15.40;97.40;;;;;;6581609;21;20451;-65
2024/04/15 10:54:16;;;;;;;6.03;1.73;;;15.30;97.80;;;;;;6579213;21;20471;-66
2024/04/15 10:56:44;;;;;;;3.40;1.73;;;15.30;98.80;;;;;;6580087;21;20535;-66
2024/04/15 10:59:12;;;;;;;3.33;1.83;;;15.50;98.40;;;;;;6579582;21;20508;-67
2024/04/15 11:01:44;;;;;;;4.40;2.10;;;15.50;97.30;;;;;;6579057;21;20567;-67
2024/04/15 11:04:16;;;;;;;3.63;1.47;;;15.30;97.50;;;;;;6579280;21;20475;-65
2024/04/15 11:06:46;;;;;;;5.73;1.80;;;15.00;97.90;;;;;;6581008;21;20440;-67
2024/04/15 11:09:12;;;;;;;5.27;1.83;;;14.90;98.60;;;;;;6582269;21;20504;-67
2024/04/15 11:11:41;;;;;;;4.17;2.53;;;14.90;99.10;;;;;;6581701;21;20504;-65
2024/04/15 11:14:10;;;;;;;11.40;2.13;;;14.70;99.70;;;;;;6580406;21;21232;-66
2024/04/15 11:16:39;;;;;;;7.20;2.43;;;14.50;99.90;;;;;;6581316;21;21035;-66
2024/04/15 11:19:05;;;;;;;5.37;2.00;;;14.40;99.90;;;;;;6581894;21;20495;-67
2024/04/15 11:21:55;;;;;;;1.93;1.80;;;14.30;99.90;;;;;;6583889;21;20459;-67
2024/04/15 11:27:01;;;;;;;7.00;1.80;;;14.40;99.90;;;;;;6546218;21;20523;-66
2024/04/15 11:29:27;;;;;;;5.43;1.60;;;14.40;99.90;;;;;;6637896;21;21041;-65
2024/04/15 11:31:56;;;;;;;4.03;1.47;;;14.40;99.60;;;;;;6636609;21;20485;-66
2024/04/15 11:34:22;;;;;;;4.07;1.97;;;14.40;99.80;;;;;;6611500;21;20523;-55
2024/04/15 11:36:53;;;;;;;8.73;1.90;;;14.30;99.90;;;;;;6581452;21;20467;-56
2024/04/15 11:39:20;;;;;;;4.70;2.60;;;14.20;99.90;;;;;;6582631;21;20508;-58
2024/04/15 11:41:49;;;;;;;4.53;2.60;;;14.10;99.90;;;;;;6583443;21;20456;-55
2024/04/15 11:44:15;;;;;;;9.77;2.50;;;14.10;99.90;;;;;;6582322;21;20575;-54
2024/04/15 11:46:43;;;;;;;3.70;3.00;;;14.00;99.90;;;;;;6582390;21;20450;-58
2024/04/15 11:49:12;;;;;;;3.50;2.73;;;13.90;99.90;;;;;;6583217;21;20522;-57
2024/04/15 11:51:42;;;;;;;9.27;4.47;;;14.00;99.90;;;;;;6582590;21;20458;-58
2024/04/15 11:54:17;;;;;;;6.40;5.23;;;14.00;99.90;;;;;;6582154;21;20478;-54
2024/04/15 11:56:43;;;;;;;7.93;4.73;;;14.10;99.90;;;;;;6584474;21;20450;-58
2024/04/15 11:59:12;;;;;;;3.77;2.80;;;14.20;99.90;;;;;;6583773;21;20443;-58
2024/04/15 12:01:49;;;;;;;4.20;2.40;;;14.50;99.90;;;;;;6581862;21;20504;-56
2024/04/15 12:04:15;;;;;;;3.40;3.10;;;14.70;99.90;;;;;;6581381;21;20475;-66
2024/04/15 12:06:45;;;;;;;3.60;3.30;;;14.90;99.90;;;;;;6535699;21;20451;-66
2024/04/15 12:09:14;;;;;;;3.40;2.70;;;15.10;99.90;;;;;;6579940;21;20443;-65
2024/04/15 12:11:43;;;;;;;9.33;3.77;;;15.20;99.90;;;;;;6583057;21;20515;-65
2024/04/15 12:14:09;;;;;;;4.50;2.80;;;15.40;99.90;;;;;;6579513;21;20778;-67
2024/04/15 12:16:39;;;;;;;5.80;2.70;;;15.40;99.90;;;;;;6580283;21;20793;-65
2024/04/15 12:19:05;;;;;;;4.00;3.10;;;15.40;99.90;;;;;;6580044;21;20526;-66
2024/04/15 12:21:34;;;;;;;5.30;3.00;;;15.50;99.90;;;;;;6581460;21;20500;-66
2024/04/15 12:24:00;;;;;;;6.97;3.80;;;15.60;99.90;;;;;;6581224;21;20535;-63
2024/04/15 12:26:32;;;;;;;17.93;9.40;;;15.50;99.90;;;;;;6579964;21;20466;-66
2024/04/15 12:28:58;;;;;;;4.23;3.37;;;15.40;99.90;;;;;;6579416;21;20498;-65
2024/04/15 12:31:26;;;;;;;4.33;3.40;;;15.50;99.90;;;;;;6579190;21;20503;-65
2024/04/15 12:33:52;;;;;;;6.47;3.60;;;15.60;99.90;;;;;;6579686;21;20504;-67
2024/04/15 12:36:21;;;;;;;6.97;3.43;;;15.50;99.90;;;;;;6580710;21;20566;-65
2024/04/15 12:38:49;;;;;;;5.40;3.53;;;15.40;99.90;;;;;;6580338;21;20875;-65
2024/04/15 12:41:18;;;;;;;4.17;2.73;;;15.30;99.90;;;;;;6581850;21;20447;-66
2024/04/15 12:43:48;;;;;;;3.93;3.53;;;15.30;99.90;;;;;;6580737;21;20820;-66
2024/04/15 12:46:17;;;;;;;6.63;3.40;;;15.30;99.90;;;;;;6580846;21;20458;-66
2024/04/15 12:48:44;;;;;;;4.80;3.70;;;15.20;99.90;;;;;;6581482;21;20439;-65
2024/04/15 12:51:13;;;;;;;4.30;3.00;;;15.10;99.90;;;;;;6582024;21;20443;-65
2024/04/15 12:53:42;;;;;;;4.03;3.70;;;14.90;99.90;;;;;;6581032;21;20825;-65
2024/04/15 12:56:11;;;;;;;7.27;4.87;;;14.90;99.90;;;;;;6581746;21;20502;-65
2024/04/15 12:58:37;;;;;;;4.53;3.87;;;14.90;99.90;;;;;;6582648;21;20455;-65
2024/04/15 13:01:09;;;;;;;4.97;4.57;;;15.00;99.90;;;;;;6585077;21;20821;-66
2024/04/15 13:03:36;;;;;;;5.17;4.57;;;15.20;99.90;;;;;;6583308;21;20443;-67
2024/04/15 13:06:05;;;;;;;6.30;4.60;;;15.30;99.90;;;;;;6580896;21;20455;-68
2024/04/15 13:08:31;;;;;;;7.40;4.50;;;15.40;99.90;;;;;;6581003;21;20462;-66